Megan T Miller — WCW9003 — position and weather

sailwx.info

Track history (hours):
 
Tides and Currents Weather Stations Pressure Air Temp Water Temp Dewpoint Dewpoint Depression Visibility Wind Speed Wind Dir Waves Ship Positions

Megan T Miller

Owner: MILLER MARINE SERVICES INC, PORT JEFFERSON, NY. More information available from US FCC via Universal Licensing System and Coast Guard Vessel Documentation Center.

Last reported at 2017-Jul-29 08:35 UTC. Time now 2017-Aug-19 05:28 UTC.
Position N 41°12' W 072°44'.
Warning: this ship's position is 20 days out of date.

Length 18 m; draft 3 m.

MMSI: 338104509.

Date/timePositionNaut miles runAvg speedWind from/ knotsBaromVisibWave heightAir tempDewpointWater temp
2017-Jul-29 08:35N 41°12' W 072°44'1 9.1
2017-Jul-29 08:30N 41°12' W 072°43'4 9.1
2017-Jul-29 08:00N 41°12' W 072°37'5 9.0
2017-Jul-29 07:30N 41°13' W 072°31'  
2017-Jul-26 20:16N 42°12' W 069°48'3 9.3
2017-Jul-26 19:58N 42°12' W 069°52'6 9.0
2017-Jul-26 19:16N 42°12' W 070°00'2 9.0
2017-Jul-26 19:00N 42°12' W 070°03'4 8.9
2017-Jul-26 18:30N 42°12' W 070°09'111 8.2
2017-Jul-26 04:58N 41°13' W 072°15'3 7.1
2017-Jul-26 04:30N 41°13' W 072°19'3 6.9
2017-Jul-26 04:00N 41°12' W 072°24'3 6.7
2017-Jul-26 03:30N 41°12' W 072°28'3 6.8
2017-Jul-26 03:00N 41°11' W 072°33'4 7.6
2017-Jul-26 02:30N 41°11' W 072°38'  
Track history (hours):
 
Tides and Currents Weather Stations Pressure Air Temp Water Temp Dewpoint Dewpoint Depression Visibility Wind Speed Wind Dir Waves Ship Positions

Megan T Miller

Owner: MILLER MARINE SERVICES INC, PORT JEFFERSON, NY. More information available from US FCC via Universal Licensing System and Coast Guard Vessel Documentation Center.

Last reported at 2017-Jul-29 08:35 UTC. Time now 2017-Aug-19 05:28 UTC.
Position N 41°12' W 072°44'.
Warning: this ship's position is 20 days out of date.

Length 18 m; draft 3 m.

MMSI: 338104509.

Date/timePositionNaut miles runAvg speedWind from/ knotsBaromVisibWave heightAir tempDewpointWater temp
2017-Jul-29 08:35N 41°12' W 072°44'1 9.1
2017-Jul-29 08:30N 41°12' W 072°43'4 9.1
2017-Jul-29 08:00N 41°12' W 072°37'5 9.0
2017-Jul-29 07:30N 41°13' W 072°31'  
2017-Jul-26 20:16N 42°12' W 069°48'3 9.3
2017-Jul-26 19:58N 42°12' W 069°52'6 9.0
2017-Jul-26 19:16N 42°12' W 070°00'2 9.0
2017-Jul-26 19:00N 42°12' W 070°03'4 8.9
2017-Jul-26 18:30N 42°12' W 070°09'111 8.2
2017-Jul-26 04:58N 41°13' W 072°15'3 7.1
2017-Jul-26 04:30N 41°13' W 072°19'3 6.9
2017-Jul-26 04:00N 41°12' W 072°24'3 6.7
2017-Jul-26 03:30N 41°12' W 072°28'3 6.8
2017-Jul-26 03:00N 41°11' W 072°33'4 7.6
2017-Jul-26 02:30N 41°11' W 072°38'  

Dump ship's entire track history